createdAt,value
2019-05-11T00:01:34.503Z,9.72
2019-05-11T00:06:36.604Z,9.71
2019-05-11T00:11:38.456Z,9.71
2019-05-11T00:16:40.618Z,9.42
2019-05-11T00:21:42.564Z,9.51
2019-05-11T00:26:44.455Z,9.33
2019-05-11T00:31:49.130Z,10.03
2019-05-11T00:36:51.413Z,9.81
2019-05-11T00:42:03.028Z,9.54
2019-05-11T00:47:06.543Z,9.48
2019-05-11T00:52:08.378Z,9.27
2019-05-11T00:57:10.653Z,9.32
2019-05-11T01:02:12.553Z,9.32
2019-05-11T01:07:14.510Z,9.34
2019-05-11T01:12:16.309Z,9.34
2019-05-11T01:17:20.266Z,9.27
2019-05-11T01:22:24.989Z,9.31
2019-05-11T01:27:29.704Z,8.96
2019-05-11T01:32:31.623Z,8.67
2019-05-11T01:37:33.765Z,9.05
2019-05-11T01:42:35.631Z,9.05
2019-05-11T01:47:37.829Z,9.01
2019-05-11T01:52:41.551Z,8.61
2019-05-11T01:57:43.541Z,8.63
2019-05-11T02:02:45.248Z,9.04
2019-05-11T02:07:49.781Z,8.93
2019-05-11T02:12:51.670Z,8.74
2019-05-11T02:17:58.752Z,8.94
2019-05-11T02:23:00.577Z,8.79
2019-05-11T02:28:02.502Z,8.86
2019-05-11T02:33:04.305Z,9.12
2019-05-11T02:38:06.226Z,9.01
2019-05-11T02:43:08.336Z,8.95
2019-05-11T02:48:11.728Z,8.61
2019-05-11T02:53:14.191Z,8.91
2019-05-11T02:58:16.289Z,8.85
2019-05-11T03:03:19.568Z,8.26
2019-05-11T03:08:21.502Z,8.23
2019-05-11T03:13:23.491Z,8.26
2019-05-11T03:18:25.306Z,8.30
2019-05-11T03:23:29.371Z,8.46
2019-05-11T03:28:31.194Z,8.33
2019-05-11T03:33:34.650Z,8.42
2019-05-11T03:38:39.231Z,8.32
2019-05-11T03:43:41.156Z,7.95
2019-05-11T03:48:43.224Z,8.19
2019-05-11T03:53:45.309Z,8.08
2019-05-11T03:58:47.223Z,8.13
2019-05-11T04:03:51.584Z,8.10
2019-05-11T04:08:53.540Z,8.15
2019-05-11T04:13:55.362Z,8.41
2019-05-11T04:18:57.279Z,8.37
2019-05-11T04:23:59.209Z,8.12
2019-05-11T04:29:01.042Z,8.55
2019-05-11T04:34:03.152Z,8.51
2019-05-11T04:39:05.507Z,8.18
2019-05-11T04:44:07.642Z,8.44
2019-05-11T04:49:09.601Z,8.25
2019-05-11T04:54:12.668Z,8.75
2019-05-11T04:59:19.802Z,8.95
2019-05-11T05:04:22.057Z,8.18
2019-05-11T05:09:23.856Z,9.21
2019-05-11T05:14:26.347Z,8.94
2019-05-11T05:19:28.251Z,8.83
2019-05-11T05:24:30.174Z,9.57
2019-05-11T05:29:32.178Z,9.66
2019-05-11T05:34:33.983Z,9.96
2019-05-11T05:39:37.696Z,9.43
2019-05-11T05:44:42.331Z,10.33
2019-05-11T05:49:44.254Z,10.70
2019-05-11T05:54:47.972Z,10.46
2019-05-11T05:59:49.810Z,12.21
2019-05-11T06:04:53.161Z,13.61
2019-05-11T06:09:55.077Z,13.85
2019-05-11T06:14:57.207Z,13.46
2019-05-11T06:20:03.597Z,13.45
2019-05-11T06:25:06.320Z,13.58
2019-05-11T06:30:08.516Z,15.13
2019-05-11T06:35:13.638Z,14.29
2019-05-11T06:40:15.626Z,16.04
2019-05-11T06:45:20.585Z,15.67
2019-05-11T06:50:22.521Z,13.85
2019-05-11T06:55:24.472Z,13.30
2019-05-11T07:00:26.399Z,13.54
2019-05-11T07:05:29.897Z,14.42
2019-05-11T07:10:31.784Z,15.62
2019-05-11T07:15:36.336Z,15.49
2019-05-11T07:20:49.937Z,15.32
2019-05-11T07:25:42.373Z,15.37
2019-05-11T07:30:44.150Z,15.34
2019-05-11T07:35:47.859Z,17.00
2019-05-11T07:40:49.946Z,16.83
2019-05-11T07:45:52.147Z,15.55
2019-05-11T07:50:54.458Z,13.52
2019-05-11T07:55:58.479Z,14.28
2019-05-11T08:01:00.251Z,13.81
2019-05-11T08:06:05.017Z,14.22
2019-05-11T08:11:08.157Z,13.94
2019-05-11T08:16:11.706Z,14.08
2019-05-11T08:21:13.574Z,14.12
2019-05-11T08:26:19.266Z,14.21
2019-05-11T08:31:21.324Z,13.82
2019-05-11T08:36:28.560Z,14.18
2019-05-11T08:41:33.021Z,14.22
2019-05-11T08:46:38.915Z,13.91
2019-05-11T08:51:43.670Z,14.40
2019-05-11T08:56:45.570Z,13.50
2019-05-11T09:01:48.456Z,14.27
2019-05-11T09:06:50.923Z,15.00
2019-05-11T09:11:52.932Z,14.98
2019-05-11T09:16:55.123Z,13.96
2019-05-11T09:22:03.173Z,14.52
2019-05-11T09:27:07.820Z,14.34
2019-05-11T09:32:10.246Z,14.23
2019-05-11T09:37:12.311Z,15.13
2019-05-11T09:42:14.256Z,16.47
2019-05-11T09:47:19.119Z,15.27
2019-05-11T09:52:23.940Z,15.94
2019-05-11T09:57:27.631Z,15.90
2019-05-11T10:02:32.551Z,14.93
2019-05-11T10:07:38.088Z,14.69
2019-05-11T10:12:40.366Z,15.16
2019-05-11T10:17:42.679Z,14.74
2019-05-11T10:22:54.860Z,15.55
2019-05-11T10:28:02.459Z,16.00
2019-05-11T10:33:05.446Z,16.15
2019-05-11T10:38:09.975Z,16.17
2019-05-11T10:43:18.333Z,15.86
2019-05-11T10:48:21.978Z,15.41
2019-05-11T10:53:24.084Z,15.09
2019-05-11T10:58:28.375Z,16.26
2019-05-11T11:03:32.354Z,15.69
2019-05-11T11:08:34.257Z,15.26
2019-05-11T11:13:38.533Z,15.10
2019-05-11T11:18:40.069Z,15.16
2019-05-11T11:23:42.133Z,15.29
2019-05-11T11:28:44.702Z,15.86
2019-05-11T11:33:48.891Z,15.50
2019-05-11T11:38:50.207Z,15.47
2019-05-11T11:43:52.235Z,15.54
2019-05-11T11:48:54.234Z,15.21
2019-05-11T11:53:58.339Z,15.35
2019-05-11T11:59:00.198Z,15.09
2019-05-11T12:04:02.229Z,15.42
2019-05-11T12:09:08.801Z,15.58
2019-05-11T12:14:11.474Z,15.67
2019-05-11T12:19:13.361Z,14.83
2019-05-11T12:24:18.567Z,15.25
2019-05-11T12:29:20.109Z,15.08
2019-05-11T12:34:25.492Z,15.19
2019-05-11T12:39:32.623Z,15.08
2019-05-11T12:44:34.516Z,15.26
2019-05-11T12:49:36.420Z,15.76
2019-05-11T12:54:38.622Z,14.92
2019-05-11T12:59:40.540Z,15.18
2019-05-11T13:04:42.623Z,15.44
2019-05-11T13:09:48.261Z,15.25
2019-05-11T13:14:50.233Z,15.18
2019-05-11T13:19:52.188Z,15.51
2019-05-11T13:25:02.044Z,15.65
2019-05-11T13:30:04.551Z,15.69
2019-05-11T13:35:09.140Z,15.44
2019-05-11T13:40:18.880Z,15.78
2019-05-11T13:45:20.872Z,15.33
2019-05-11T13:50:29.649Z,15.72
2019-05-11T13:55:32.218Z,15.86
2019-05-11T14:00:37.857Z,15.55
2019-05-11T14:05:39.877Z,15.63
2019-05-11T14:10:41.665Z,15.44
2019-05-11T14:15:47.951Z,15.38
2019-05-11T14:20:49.377Z,15.41
2019-05-11T14:25:53.297Z,15.58
2019-05-11T14:30:55.126Z,15.32
2019-05-11T14:35:59.753Z,15.33
2019-05-11T14:41:01.592Z,15.45
2019-05-11T14:46:08.550Z,15.49
2019-05-11T14:51:10.709Z,14.99
2019-05-11T14:56:14.337Z,15.10
2019-05-11T15:01:18.317Z,15.40
2019-05-11T15:06:20.122Z,14.98
2019-05-11T15:11:24.144Z,15.14
2019-05-11T15:16:28.766Z,15.06
2019-05-11T15:21:30.704Z,15.20
2019-05-11T15:26:32.740Z,15.22
2019-05-11T15:31:34.709Z,15.06
2019-05-11T15:36:38.668Z,14.79
2019-05-11T15:41:40.402Z,15.22
2019-05-11T15:46:42.430Z,14.79
2019-05-11T15:51:44.235Z,14.86
2019-05-11T15:56:46.157Z,15.10
2019-05-11T16:01:48.911Z,14.81
2019-05-11T16:06:51.349Z,14.62
2019-05-11T16:11:53.182Z,14.97
2019-05-11T16:16:59.038Z,14.89
2019-05-11T16:22:03.525Z,14.46
2019-05-11T16:27:05.860Z,14.63
2019-05-11T16:32:14.899Z,14.45
2019-05-11T16:37:21.836Z,14.60
2019-05-11T16:42:23.614Z,14.32
2019-05-11T16:47:25.816Z,14.24
2019-05-11T16:52:28.084Z,14.21
2019-05-11T16:57:30.438Z,14.19
2019-05-11T17:02:34.569Z,14.18
2019-05-11T17:07:37.646Z,14.26
2019-05-11T17:12:40.275Z,13.92
2019-05-11T17:17:44.259Z,13.90
2019-05-11T17:22:47.939Z,13.68
2019-05-11T17:27:50.397Z,13.48
2019-05-11T17:32:52.207Z,13.61
2019-05-11T17:37:56.445Z,13.53
2019-05-11T17:42:59.860Z,13.12
2019-05-11T17:48:04.862Z,13.23
2019-05-11T17:53:06.876Z,13.10
2019-05-11T17:58:10.157Z,13.09
2019-05-11T18:03:12.152Z,13.09
2019-05-11T18:08:18.732Z,12.69
2019-05-11T18:13:22.198Z,12.78
2019-05-11T18:18:29.068Z,12.40
2019-05-11T18:23:32.048Z,12.36
2019-05-11T18:28:37.656Z,12.47
2019-05-11T18:33:42.276Z,12.32
2019-05-11T18:38:44.106Z,12.19
2019-05-11T18:43:48.337Z,12.11
2019-05-11T18:48:53.891Z,11.90
2019-05-11T18:53:58.574Z,11.76
2019-05-11T18:59:02.787Z,11.69
2019-05-11T19:04:08.653Z,11.65
2019-05-11T19:09:11.800Z,11.43
2019-05-11T19:14:13.983Z,11.38
2019-05-11T19:19:18.789Z,11.33
2019-05-11T19:24:20.923Z,11.18
2019-05-11T19:29:23.083Z,10.98
2019-05-11T19:34:29.115Z,11.05
2019-05-11T19:39:30.837Z,11.04
2019-05-11T19:44:34.284Z,10.89
2019-05-11T19:49:39.906Z,10.71
2019-05-11T19:54:41.941Z,10.68
2019-05-11T19:59:43.771Z,10.74
2019-05-11T20:04:50.866Z,10.64
2019-05-11T20:09:52.767Z,10.69
2019-05-11T20:14:54.697Z,10.53
2019-05-11T20:20:01.100Z,10.54
2019-05-11T20:25:05.466Z,10.41
2019-05-11T20:30:08.624Z,10.41
2019-05-11T20:35:12.150Z,10.30
2019-05-11T20:40:14.146Z,10.41
2019-05-11T20:45:18.433Z,10.04
2019-05-11T20:50:20.002Z,10.09
2019-05-11T20:55:22.207Z,10.03
2019-05-11T21:00:28.005Z,10.16
2019-05-11T21:05:30.330Z,10.34
2019-05-11T21:10:32.315Z,10.15
2019-05-11T21:15:38.446Z,10.15
2019-05-11T21:20:40.770Z,10.44
2019-05-11T21:25:43.075Z,10.53
2019-05-11T21:30:44.930Z,10.41
2019-05-11T21:35:49.141Z,10.65
2019-05-11T21:40:50.900Z,10.85
2019-05-11T21:45:55.256Z,10.76
2019-05-11T21:50:59.748Z,10.76
2019-05-11T21:56:00.907Z,10.46
2019-05-11T22:01:03.630Z,11.07
2019-05-11T22:06:05.659Z,11.13
2019-05-11T22:11:08.734Z,11.15
2019-05-11T22:16:11.153Z,11.12
2019-05-11T22:21:14.285Z,11.19
2019-05-11T22:26:18.003Z,11.26
2019-05-11T22:31:20.194Z,11.12
2019-05-11T22:36:22.235Z,10.70
2019-05-11T22:41:24.070Z,10.66
2019-05-11T22:46:28.096Z,10.29
2019-05-11T22:51:31.782Z,10.33
2019-05-11T22:56:34.739Z,10.30
2019-05-11T23:01:37.830Z,10.13
2019-05-11T23:06:40.639Z,10.04
2019-05-11T23:11:42.910Z,10.00
2019-05-11T23:16:49.702Z,9.88
2019-05-11T23:21:50.434Z,9.69
2019-05-11T23:26:53.545Z,9.70
2019-05-11T23:31:55.459Z,9.71
2019-05-11T23:36:59.184Z,9.61
2019-05-11T23:42:03.411Z,9.50
2019-05-11T23:47:05.322Z,9.88
2019-05-11T23:52:07.784Z,10.12
2019-05-11T23:57:09.999Z,10.27
